Time;durP1;ratioP1;P1;durP2;ratioP2;P2;SDS_P1;SDS_P2;PMS_P1;PMS_P2;Temp;Humidity;BMP_temperature;BMP_pressure;BME280_temperature;BME280_humidity;BME280_pressure;Samples;Min_cycle;Max_cycle;Signal;HPM_P1;HPM_P2
2022/10/08 00:00:09;;;;;;;;;;;12.50;99.90;;;;;;5089842;28;19960;-66
2022/10/08 00:02:36;;;;;;;;;;;12.50;99.90;;;;;;5094804;28;20293;-66
2022/10/08 00:05:02;;;;;;;;;;;12.40;99.90;;;;;;5091222;28;19931;-66
2022/10/08 00:07:29;;;;;;;;;;;12.40;99.90;;;;;;5098534;28;19967;-66
2022/10/08 00:09:57;;;;;;;;;;;12.40;99.90;;;;;;5099975;28;19974;-66
2022/10/08 00:12:24;;;;;;;;;;;12.30;99.90;;;;;;5097798;28;19924;-66
2022/10/08 00:14:50;;;;;;;;;;;12.30;99.90;;;;;;5091212;28;19930;-66
2022/10/08 00:17:17;;;;;;;;;;;12.30;99.90;;;;;;5098185;28;20029;-66
2022/10/08 00:19:44;;;;;;;;;;;12.30;99.90;;;;;;5097660;28;19931;-66
2022/10/08 00:22:10;;;;;;;;;;;12.30;99.90;;;;;;5093039;28;19975;-66
2022/10/08 00:24:38;;;;;;;;;;;12.20;99.90;;;;;;5096400;28;20009;-66
2022/10/08 00:27:06;;;;;;;;;;;12.20;99.90;;;;;;5090937;28;19967;-66
2022/10/08 00:29:33;;;;;;;;;;;12.20;99.90;;;;;;5086875;28;20026;-66
2022/10/08 00:32:00;;;;;;;;;;;12.30;99.90;;;;;;5086148;28;20022;-66
2022/10/08 00:34:26;;;;;;;;;;;12.30;99.90;;;;;;5102329;28;20015;-67
2022/10/08 00:36:54;;;;;;;;;;;12.30;99.90;;;;;;5095009;28;20022;-68
2022/10/08 00:39:22;;;;;;;;;;;12.30;99.90;;;;;;5094011;28;19924;-66
2022/10/08 00:41:50;;;;;;;;;;;12.30;99.90;;;;;;5106319;28;19924;-67
2022/10/08 00:44:35;;;;;;;;;;;12.30;99.90;;;;;;5090851;28;19943;-66
2022/10/08 00:47:03;;;;;;;;;;;12.30;99.90;;;;;;5093709;28;19923;-67
2022/10/08 00:49:30;;;;;;;;;;;12.40;99.90;;;;;;5090475;28;19932;-67
2022/10/08 00:51:56;;;;;;;;;;;12.40;99.90;;;;;;5097032;28;20006;-66
2022/10/08 00:54:23;;;;;;;;;;;12.50;99.90;;;;;;5092973;28;20010;-67
2022/10/08 00:56:51;;;;;;;;;;;12.50;99.90;;;;;;5088142;28;19975;-67
2022/10/08 00:59:18;;;;;;;;;;;12.60;99.90;;;;;;5090940;28;20027;-67
2022/10/08 01:01:44;;;;;;;;;;;12.60;99.90;;;;;;5097664;28;19924;-67
2022/10/08 01:04:13;;;;;;;;;;;12.60;99.90;;;;;;5095657;28;19931;-67
2022/10/08 01:06:43;;;;;;;;;;;12.60;99.90;;;;;;5093637;28;19931;-67
2022/10/08 01:09:13;;;;;;;;;;;12.70;99.90;;;;;;5090180;28;19969;-67
2022/10/08 01:11:45;;;;;;;;;;;12.70;99.90;;;;;;5090967;28;19942;-66
2022/10/08 01:14:18;;;;;;;;;;;12.70;99.90;;;;;;5086456;28;19978;-67
2022/10/08 01:16:50;;;;;;;;;;;12.70;99.90;;;;;;5086830;28;19930;-66
2022/10/08 01:19:30;;;;;;;;;;;12.70;99.90;;;;;;5085663;28;20298;-66
2022/10/08 01:22:01;;;;;;;;;;;12.70;99.90;;;;;;5087619;28;19925;-66
2022/10/08 01:27:21;;;;;;;;;;;12.70;99.90;;;;;;5083173;28;19932;-65
2022/10/08 01:29:48;;;;;;;;;;;12.60;99.90;;;;;;5085068;28;20418;-66
2022/10/08 01:32:17;;;;;;;;;;;12.50;99.90;;;;;;5090750;28;19928;-65
2022/10/08 01:34:45;;;;;;;;;;;12.40;99.90;;;;;;5090926;28;20023;-66
2022/10/08 01:37:14;;;;;;;;;;;12.30;99.90;;;;;;5094376;28;20027;-66
2022/10/08 01:39:44;;;;;;;;;;;12.30;99.90;;;;;;5096644;28;19931;-65
2022/10/08 01:42:11;;;;;;;;;;;12.30;99.90;;;;;;5089592;28;19930;-66
2022/10/08 01:44:41;;;;;;;;;;;12.30;99.90;;;;;;5089932;28;19924;-66
2022/10/08 01:47:10;;;;;;;;;;;12.30;99.90;;;;;;5091927;28;19929;-65
2022/10/08 01:49:40;;;;;;;;;;;12.30;99.90;;;;;;5095218;28;20007;-65
2022/10/08 01:52:10;;;;;;;;;;;12.30;99.90;;;;;;5089019;28;20005;-66
2022/10/08 01:54:37;;;;;;;;;;;12.30;99.90;;;;;;5095581;28;20010;-65
2022/10/08 01:57:05;;;;;;;;;;;12.30;99.90;;;;;;5093695;28;20297;-66
2022/10/08 01:59:34;;;;;;;;;;;12.30;99.90;;;;;;5089882;28;19924;-66
2022/10/08 02:02:05;;;;;;;;;;;12.30;99.90;;;;;;5093432;28;19924;-65
2022/10/08 02:04:36;;;;;;;;;;;12.30;99.90;;;;;;5099693;28;19974;-65
2022/10/08 02:07:06;;;;;;;;;;;12.30;99.90;;;;;;5090903;28;20370;-65
2022/10/08 02:09:34;;;;;;;;;;;12.30;99.90;;;;;;5093183;28;20294;-66
2022/10/08 02:12:00;;;;;;;;;;;12.30;99.90;;;;;;5094691;28;19924;-66
2022/10/08 02:14:28;;;;;;;;;;;12.30;99.90;;;;;;5102950;28;20319;-66
2022/10/08 02:17:01;;;;;;;;;;;12.30;99.90;;;;;;5093232;28;19959;-66
2022/10/08 02:19:36;;;;;;;;;;;12.30;99.90;;;;;;5092256;28;19937;-66
2022/10/08 02:22:05;;;;;;;;;;;12.30;99.90;;;;;;5085365;28;19924;-66
2022/10/08 02:24:36;;;;;;;;;;;12.30;99.90;;;;;;5085448;28;19928;-66
2022/10/08 02:27:04;;;;;;;;;;;12.30;99.90;;;;;;5095299;28;20070;-65
2022/10/08 02:29:34;;;;;;;;;;;12.30;99.90;;;;;;5099051;28;19928;-65
2022/10/08 02:32:04;;;;;;;;;;;12.30;99.90;;;;;;5095955;28;20370;-66
2022/10/08 02:34:33;;;;;;;;;;;12.30;99.90;;;;;;5102998;28;19923;-66
2022/10/08 02:37:03;;;;;;;;;;;12.30;99.90;;;;;;5088836;28;20390;-65
2022/10/08 02:39:31;;;;;;;;;;;12.20;99.90;;;;;;5095685;28;19931;-65
2022/10/08 02:41:59;;;;;;;;;;;12.20;99.90;;;;;;5091481;28;19934;-66
2022/10/08 02:44:28;;;;;;;;;;;12.20;99.90;;;;;;5095792;28;19931;-66
2022/10/08 02:46:56;;;;;;;;;;;12.20;99.90;;;;;;5101176;28;20433;-66
2022/10/08 02:49:25;;;;;;;;;;;12.20;99.90;;;;;;5105487;28;20033;-66
2022/10/08 02:51:53;;;;;;;;;;;12.10;99.90;;;;;;5096024;28;20007;-65
2022/10/08 02:54:21;;;;;;;;;;;12.10;99.90;;;;;;5099385;28;19931;-66
2022/10/08 02:56:51;;;;;;;;;;;12.10;99.90;;;;;;5098896;28;19924;-66
2022/10/08 02:59:19;;;;;;;;;;;12.00;99.90;;;;;;5094426;28;19928;-66
2022/10/08 03:01:48;;;;;;;;;;;12.00;99.90;;;;;;5089576;28;19934;-66
2022/10/08 03:04:17;;;;;;;;;;;11.90;99.90;;;;;;5095322;28;20018;-66
2022/10/08 03:06:44;;;;;;;;;;;11.90;99.90;;;;;;5094522;28;20407;-66
2022/10/08 03:09:14;;;;;;;;;;;11.80;99.90;;;;;;5090593;28;19932;-65
2022/10/08 03:11:41;;;;;;;;;;;11.80;99.90;;;;;;5094035;28;20390;-65
2022/10/08 03:14:09;;;;;;;;;;;11.80;99.90;;;;;;5089852;28;20608;-66
2022/10/08 03:16:37;;;;;;;;;;;11.80;99.90;;;;;;5081989;28;20078;-65
2022/10/08 03:19:04;;;;;;;;;;;11.80;99.90;;;;;;5085393;28;20011;-65
2022/10/08 03:21:31;;;;;;;;;;;11.80;99.90;;;;;;5085903;28;19924;-65
2022/10/08 03:23:58;;;;;;;;;;;11.80;99.90;;;;;;5090812;28;19924;-65
2022/10/08 03:26:26;;;;;;;;;;;11.80;99.90;;;;;;5097947;28;20011;-65
2022/10/08 03:28:53;;;;;;;;;;;11.80;99.90;;;;;;5087034;28;19946;-65
2022/10/08 03:31:20;;;;;;;;;;;11.80;99.90;;;;;;5099966;28;19924;-65
2022/10/08 03:33:49;;;;;;;;;;;11.70;99.90;;;;;;5089937;28;20451;-65
2022/10/08 03:36:15;;;;;;;;;;;11.60;99.90;;;;;;5090338;28;20388;-65
2022/10/08 03:38:42;;;;;;;;;;;11.60;99.90;;;;;;5091959;28;20430;-65
2022/10/08 03:41:09;;;;;;;;;;;11.50;99.90;;;;;;5093507;28;20396;-67
2022/10/08 03:43:37;;;;;;;;;;;11.50;99.90;;;;;;5088997;28;19947;-65
2022/10/08 03:46:04;;;;;;;;;;;11.40;99.90;;;;;;5095499;28;19924;-66
2022/10/08 03:48:31;;;;;;;;;;;11.40;99.90;;;;;;5093090;28;20082;-66
2022/10/08 03:50:58;;;;;;;;;;;11.40;99.90;;;;;;5089849;28;19932;-66
2022/10/08 03:53:25;;;;;;;;;;;11.40;99.90;;;;;;5084423;28;19924;-66
2022/10/08 03:55:52;;;;;;;;;;;11.30;99.90;;;;;;5097164;28;19930;-65
2022/10/08 03:58:19;;;;;;;;;;;11.30;99.90;;;;;;5094660;28;19930;-65
2022/10/08 04:00:57;;;;;;;;;;;11.30;99.90;;;;;;5085507;28;19934;-65
2022/10/08 04:03:24;;;;;;;;;;;11.20;99.90;;;;;;5089835;28;20302;-65
2022/10/08 04:05:51;;;;;;;;;;;11.20;99.90;;;;;;5087522;28;19979;-65
2022/10/08 04:08:17;;;;;;;;;;;11.20;99.90;;;;;;5089088;28;20390;-65
2022/10/08 04:10:44;;;;;;;;;;;11.10;99.90;;;;;;5087521;28;19925;-65
2022/10/08 04:13:11;;;;;;;;;;;11.10;99.90;;;;;;5087348;28;20293;-65
2022/10/08 04:15:38;;;;;;;;;;;11.10;99.90;;;;;;5080743;28;20006;-65
2022/10/08 04:18:06;;;;;;;;;;;11.10;99.90;;;;;;5082584;28;19930;-66
2022/10/08 04:20:32;;;;;;;;;;;11.10;99.90;;;;;;5080371;28;20066;-66
2022/10/08 04:22:59;;;;;;;;;;;11.10;99.90;;;;;;5082660;28;19932;-65
2022/10/08 04:25:26;;;;;;;;;;;11.00;99.90;;;;;;5083506;28;19938;-66
2022/10/08 04:27:52;;;;;;;;;;;11.00;99.90;;;;;;5080046;28;19932;-66
2022/10/08 04:30:19;;;;;;;;;;;10.90;99.90;;;;;;5079865;28;19934;-67
2022/10/08 04:32:46;;;;;;;;;;;11.00;99.90;;;;;;5081002;28;19932;-66
2022/10/08 04:35:14;;;;;;;;;;;10.90;99.90;;;;;;5083970;28;19924;-67
2022/10/08 04:37:40;;;;;;;;;;;10.90;99.90;;;;;;5076618;28;20010;-66
2022/10/08 04:40:08;;;;;;;;;;;10.80;99.90;;;;;;5085943;28;20026;-66
2022/10/08 04:42:34;;;;;;;;;;;10.80;99.90;;;;;;5089774;28;20382;-66
2022/10/08 04:45:01;;;;;;;;;;;10.70;99.90;;;;;;5086838;28;20027;-67
2022/10/08 04:47:28;;;;;;;;;;;10.70;99.90;;;;;;5089552;28;19960;-67
2022/10/08 04:49:55;;;;;;;;;;;10.70;99.90;;;;;;5094833;28;19925;-67
2022/10/08 04:52:23;;;;;;;;;;;10.70;99.90;;;;;;5087063;28;19970;-66
2022/10/08 04:54:50;;;;;;;;;;;10.70;99.90;;;;;;5088195;28;19930;-67
2022/10/08 04:57:16;;;;;;;;;;;10.60;99.90;;;;;;5085922;28;19930;-67
2022/10/08 04:59:43;;;;;;;;;;;10.60;99.90;;;;;;5087135;28;19924;-67
2022/10/08 05:02:10;;;;;;;;;;;10.60;99.90;;;;;;5091945;28;19963;-67
2022/10/08 05:04:37;;;;;;;;;;;10.60;99.90;;;;;;5084594;28;19923;-67
2022/10/08 05:07:03;;;;;;;;;;;10.50;99.90;;;;;;5088428;28;19924;-66
2022/10/08 05:09:31;;;;;;;;;;;10.50;99.90;;;;;;5089418;28;20109;-67
2022/10/08 05:11:58;;;;;;;;;;;10.50;99.90;;;;;;5086523;28;20457;-66
2022/10/08 05:14:25;;;;;;;;;;;10.40;99.90;;;;;;5088335;28;20026;-66
2022/10/08 05:16:51;;;;;;;;;;;10.50;99.90;;;;;;5085557;28;20456;-66
2022/10/08 05:19:18;;;;;;;;;;;10.40;99.90;;;;;;5086895;28;20536;-66
2022/10/08 05:21:45;;;;;;;;;;;10.40;99.90;;;;;;5089240;28;20446;-66
2022/10/08 05:24:11;;;;;;;;;;;10.40;99.90;;;;;;5089925;28;19931;-66
2022/10/08 05:26:40;;;;;;;;;;;10.40;99.90;;;;;;5086140;28;19924;-65
2022/10/08 05:29:07;;;;;;;;;;;10.30;99.90;;;;;;5086732;28;19962;-65
2022/10/08 05:31:35;;;;;;;;;;;10.30;99.90;;;;;;5088582;28;19924;-65
2022/10/08 05:34:02;;;;;;;;;;;10.20;99.90;;;;;;5088561;28;19979;-67
2022/10/08 05:36:30;;;;;;;;;;;10.20;99.90;;;;;;5086809;28;19924;-66
2022/10/08 05:38:59;;;;;;;;;;;10.20;99.90;;;;;;5088136;28;19924;-66
2022/10/08 05:41:26;;;;;;;;;;;10.10;99.90;;;;;;5085184;28;20015;-65
2022/10/08 05:43:54;;;;;;;;;;;10.10;99.90;;;;;;5081347;28;19924;-66
2022/10/08 05:46:23;;;;;;;;;;;10.10;99.90;;;;;;5085540;28;19930;-65
2022/10/08 05:48:52;;;;;;;;;;;10.00;99.90;;;;;;5085272;28;19936;-65
2022/10/08 05:51:19;;;;;;;;;;;10.00;99.90;;;;;;5081559;28;19931;-65
2022/10/08 05:53:47;;;;;;;;;;;10.00;99.90;;;;;;5086891;28;19931;-65
2022/10/08 05:56:14;;;;;;;;;;;10.00;99.90;;;;;;5083923;28;20362;-65
2022/10/08 05:58:41;;;;;;;;;;;9.90;99.90;;;;;;5085433;28;19997;-65
2022/10/08 06:01:12;;;;;;;;;;;10.00;99.90;;;;;;5088424;28;20065;-65
2022/10/08 06:03:39;;;;;;;;;;;10.00;99.90;;;;;;5085102;28;20382;-66
2022/10/08 06:06:07;;;;;;;;;;;10.00;99.90;;;;;;5087231;28;20383;-65
2022/10/08 06:08:34;;;;;;;;;;;9.90;99.90;;;;;;5083692;28;19924;-66
2022/10/08 06:11:01;;;;;;;;;;;10.00;99.90;;;;;;5083951;28;19975;-65
2022/10/08 06:13:27;;;;;;;;;;;10.00;99.90;;;;;;5087208;28;19931;-65
2022/10/08 06:15:55;;;;;;;;;;;10.00;99.90;;;;;;5086640;28;19928;-65
2022/10/08 06:18:23;;;;;;;;;;;10.00;99.90;;;;;;5087565;28;19932;-66
2022/10/08 06:20:50;;;;;;;;;;;10.00;99.90;;;;;;5086362;28;19931;-65
2022/10/08 06:23:16;;;;;;;;;;;10.00;99.90;;;;;;5091635;28;20010;-65
2022/10/08 06:25:43;;;;;;;;;;;10.00;99.90;;;;;;5092591;28;19931;-63
2022/10/08 06:28:09;;;;;;;;;;;10.00;99.90;;;;;;5087679;28;19931;-65
2022/10/08 06:30:36;;;;;;;;;;;10.00;99.90;;;;;;5092700;28;20019;-65
2022/10/08 06:33:03;;;;;;;;;;;10.00;99.90;;;;;;5090237;28;19931;-65
2022/10/08 06:35:31;;;;;;;;;;;10.00;99.90;;;;;;5090082;28;19923;-65
2022/10/08 06:37:57;;;;;;;;;;;10.10;99.90;;;;;;5091969;28;20420;-64
2022/10/08 06:40:24;;;;;;;;;;;10.20;99.90;;;;;;5088332;28;19924;-65
2022/10/08 06:42:51;;;;;;;;;;;10.20;99.90;;;;;;5091846;28;19959;-64
2022/10/08 06:45:18;;;;;;;;;;;10.30;99.90;;;;;;5092212;28;19924;-66
2022/10/08 06:47:44;;;;;;;;;;;10.30;99.90;;;;;;5087445;28;19928;-66
2022/10/08 06:50:11;;;;;;;;;;;10.40;99.90;;;;;;5096138;28;19924;-66
2022/10/08 06:52:39;;;;;;;;;;;10.40;99.90;;;;;;5094318;28;20018;-66
2022/10/08 06:55:06;;;;;;;;;;;10.50;99.90;;;;;;5087025;28;19989;-65
2022/10/08 06:57:32;;;;;;;;;;;10.50;99.90;;;;;;5088034;28;19982;-65
2022/10/08 06:59:59;;;;;;;;;;;10.50;99.90;;;;;;5082717;28;19928;-66
2022/10/08 07:02:26;;;;;;;;;;;10.60;99.90;;;;;;5090134;28;19930;-65
2022/10/08 07:04:52;;;;;;;;;;;10.70;99.90;;;;;;5087247;28;19931;-65
2022/10/08 07:07:19;;;;;;;;;;;10.70;99.90;;;;;;5090917;28;20223;-66
2022/10/08 07:09:47;;;;;;;;;;;10.80;99.90;;;;;;5084491;28;19931;-66
2022/10/08 07:12:14;;;;;;;;;;;10.80;99.90;;;;;;5085988;28;19932;-66
2022/10/08 07:14:41;;;;;;;;;;;10.90;99.90;;;;;;5094165;28;20286;-67
2022/10/08 07:17:07;;;;;;;;;;;10.90;99.90;;;;;;5093027;28;20337;-67
2022/10/08 07:19:34;;;;;;;;;;;11.00;99.90;;;;;;5093738;28;20491;-67
2022/10/08 07:22:01;;;;;;;;;;;11.10;99.90;;;;;;5088533;28;20342;-66
2022/10/08 07:24:27;;;;;;;;;;;11.10;99.90;;;;;;5088385;28;20024;-67
2022/10/08 07:26:56;;;;;;;;;;;11.20;99.90;;;;;;5088931;28;19925;-67
2022/10/08 07:29:23;;;;;;;;;;;11.30;99.90;;;;;;5095010;28;20309;-67
2022/10/08 07:31:50;;;;;;;;;;;11.40;99.90;;;;;;5085517;28;19935;-66
2022/10/08 07:34:16;;;;;;;;;;;11.40;99.90;;;;;;5088211;28;19929;-67
2022/10/08 07:36:43;;;;;;;;;;;11.50;99.90;;;;;;5097661;28;20323;-67
2022/10/08 07:39:11;;;;;;;;;;;11.60;99.90;;;;;;5094073;28;20346;-67
2022/10/08 07:41:38;;;;;;;;;;;11.80;99.90;;;;;;5094511;28;19924;-67
2022/10/08 07:44:06;;;;;;;;;;;12.00;99.90;;;;;;5098331;28;19930;-67
2022/10/08 07:46:37;;;;;;;;;;;13.40;99.90;;;;;;5078514;28;19924;-68
2022/10/08 07:49:04;;;;;;;;;;;15.20;99.90;;;;;;5086226;28;20404;-66
2022/10/08 07:51:32;;;;;;;;;;;16.90;99.90;;;;;;5088231;28;19923;-66
2022/10/08 07:53:59;;;;;;;;;;;18.10;99.90;;;;;;5090547;28;20293;-67
2022/10/08 07:56:26;;;;;;;;;;;19.30;99.90;;;;;;5088277;28;19959;-66
2022/10/08 07:58:52;;;;;;;;;;;20.20;99.90;;;;;;5094809;28;19928;-66
2022/10/08 08:01:22;;;;;;;;;;;21.00;97.00;;;;;;5092249;28;20025;-66
2022/10/08 08:03:52;;;;;;;;;;;21.30;93.10;;;;;;5087745;28;20297;-67
2022/10/08 08:06:19;;;;;;;;;;;21.70;90.80;;;;;;5087771;28;19924;-67
2022/10/08 08:08:46;;;;;;;;;;;22.10;84.60;;;;;;5096860;28;20445;-69
2022/10/08 08:11:14;;;;;;;;;;;22.60;77.20;;;;;;5090259;28;19930;-68
2022/10/08 08:13:41;;;;;;;;;;;22.70;70.40;;;;;;5080897;28;20022;-67
2022/10/08 08:16:09;;;;;;;;;;;22.80;64.40;;;;;;5082054;28;19928;-67
2022/10/08 08:18:38;;;;;;;;;;;22.90;57.40;;;;;;5081681;28;19978;-67
2022/10/08 08:21:06;;;;;;;;;;;22.80;57.40;;;;;;5093140;28;20003;-68
2022/10/08 08:23:34;;;;;;;;;;;22.90;56.00;;;;;;5092493;28;20397;-67
2022/10/08 08:26:01;;;;;;;;;;;22.10;64.50;;;;;;5087984;28;20434;-67
2022/10/08 08:28:28;;;;;;;;;;;22.40;61.70;;;;;;5085241;28;19924;-67
2022/10/08 08:30:56;;;;;;;;;;;22.80;54.70;;;;;;5089179;28;19931;-67
2022/10/08 08:33:22;;;;;;;;;;;23.00;51.20;;;;;;5092230;28;20297;-68
2022/10/08 08:35:54;;;;;;;;;;;23.60;47.70;;;;;;5088999;28;20370;-68
2022/10/08 08:38:21;;;;;;;;;;;24.10;40.20;;;;;;5084823;28;19943;-68
2022/10/08 08:40:48;;;;;;;;;;;22.90;38.30;;;;;;5080837;28;20019;-68
2022/10/08 08:43:15;;;;;;;;;;;21.60;50.50;;;;;;5081806;28;19982;-67
2022/10/08 08:45:44;;;;;;;;;;;21.90;48.90;;;;;;5077144;28;19924;-67
2022/10/08 08:48:14;;;;;;;;;;;22.10;42.00;;;;;;5081300;28;19932;-68
2022/10/08 08:50:43;;;;;;;;;;;21.20;51.10;;;;;;5084064;28;20048;-68
2022/10/08 08:53:11;;;;;;;;;;;21.00;54.20;;;;;;5090429;28;20017;-68
2022/10/08 08:55:39;;;;;;;;;;;20.90;52.40;;;;;;5092855;28;19963;-67
2022/10/08 08:58:15;;;;;;;;;;;20.30;58.50;;;;;;5102743;28;19969;-68
2022/10/08 09:00:44;;;;;;;;;;;19.60;62.10;;;;;;5083047;28;20333;-66
2022/10/08 09:03:16;;;;;;;;;;;19.90;61.30;;;;;;5095102;28;19924;-67
2022/10/08 09:05:45;;;;;;;;;;;20.00;58.90;;;;;;5090763;28;19935;-66
2022/10/08 09:08:15;;;;;;;;;;;19.30;67.10;;;;;;5088967;28;20017;-66
2022/10/08 09:10:45;;;;;;;;;;;19.50;62.40;;;;;;5083155;28;19924;-66
2022/10/08 09:13:14;;;;;;;;;;;19.30;68.80;;;;;;5086079;28;20027;-68
2022/10/08 09:15:42;;;;;;;;;;;18.80;66.40;;;;;;5090386;28;20367;-68
2022/10/08 09:18:12;;;;;;;;;;;18.20;73.40;;;;;;5088273;28;19930;-68
2022/10/08 09:20:39;;;;;;;;;;;19.10;75.30;;;;;;5099594;28;19982;-68
2022/10/08 09:23:12;;;;;;;;;;;18.70;68.40;;;;;;5091605;28;19924;-68
2022/10/08 09:25:41;;;;;;;;;;;18.20;70.40;;;;;;5091371;28;19966;-69
2022/10/08 09:28:08;;;;;;;;;;;17.10;83.00;;;;;;5093237;28;19924;-68
2022/10/08 09:30:36;;;;;;;;;;;16.70;88.50;;;;;;5089617;28;19986;-68
2022/10/08 09:33:04;;;;;;;;;;;16.40;90.40;;;;;;5090480;28;19925;-67
2022/10/08 09:35:31;;;;;;;;;;;15.80;92.40;;;;;;5095409;28;19970;-67
2022/10/08 09:37:58;;;;;;;;;;;15.50;94.40;;;;;;5093883;28;19930;-67
2022/10/08 09:40:26;;;;;;;;;;;15.40;97.70;;;;;;5085346;28;20162;-67
2022/10/08 09:43:11;;;;;;;;;;;15.50;97.10;;;;;;5088554;28;20383;-67
2022/10/08 09:45:41;;;;;;;;;;;15.30;96.30;;;;;;5087287;28;20171;-67
2022/10/08 09:48:13;;;;;;;;;;;15.20;96.60;;;;;;5094157;28;19959;-67
2022/10/08 09:50:46;;;;;;;;;;;15.30;96.40;;;;;;5083834;28;19932;-67
2022/10/08 09:53:13;;;;;;;;;;;15.40;96.80;;;;;;5086791;28;19927;-67
2022/10/08 09:55:40;;;;;;;;;;;15.50;96.10;;;;;;5092486;28;19950;-67
2022/10/08 09:58:16;;;;;;;;;;;15.60;96.10;;;;;;5110507;28;19924;-67
2022/10/08 10:00:44;;;;;;;;;;;15.70;95.30;;;;;;5085761;28;19924;-69
2022/10/08 10:03:16;;;;;;;;;;;16.00;95.30;;;;;;5089693;28;20305;-69
2022/10/08 10:05:49;;;;;;;;;;;16.10;93.90;;;;;;5091834;28;19935;-68
2022/10/08 10:08:31;;;;;;;;;;;16.10;93.70;;;;;;5090754;28;20007;-67
2022/10/08 10:10:58;;;;;;;;;;;16.10;93.40;;;;;;5085080;28;19928;-66
2022/10/08 10:13:28;;;;;;;;;;;16.10;93.80;;;;;;5110373;28;19946;-66
2022/10/08 10:15:58;;;;;;;;;;;16.20;93.80;;;;;;5091701;28;19923;-66
2022/10/08 10:18:29;;;;;;;;;;;16.20;93.40;;;;;;5097864;28;20370;-66
2022/10/08 10:20:58;;;;;;;;;;;16.20;92.70;;;;;;5082949;28;20457;-66
2022/10/08 10:23:26;;;;;;;;;;;16.20;92.10;;;;;;5092733;28;19982;-66
2022/10/08 10:25:55;;;;;;;;;;;16.10;92.10;;;;;;5091533;28;19924;-66
2022/10/08 10:28:27;;;;;;;;;;;16.10;92.20;;;;;;5093173;28;20077;-66
2022/10/08 10:30:57;;;;;;;;;;;16.10;92.30;;;;;;5093308;28;19930;-66
2022/10/08 10:33:26;;;;;;;;;;;15.80;92.40;;;;;;5089326;28;20437;-66
2022/10/08 10:35:55;;;;;;;;;;;15.70;92.70;;;;;;5089284;28;20647;-66
2022/10/08 10:38:23;;;;;;;;;;;15.80;92.80;;;;;;5088431;28;20429;-66
2022/10/08 10:40:53;;;;;;;;;;;15.60;92.00;;;;;;5090733;28;20367;-68
2022/10/08 10:43:39;;;;;;;;;;;15.50;92.20;;;;;;5090396;28;20374;-67
2022/10/08 10:46:14;;;;;;;;;;;15.30;91.60;;;;;;5084888;28;19978;-67
2022/10/08 10:48:42;;;;;;;;;;;15.00;92.30;;;;;;5088682;28;19924;-66
2022/10/08 10:51:18;;;;;;;;;;;14.90;92.30;;;;;;5087754;28;20352;-67
2022/10/08 10:53:49;;;;;;;;;;;14.80;92.40;;;;;;5070538;28;20370;-67
2022/10/08 10:56:17;;;;;;;;;;;14.60;92.60;;;;;;5090396;28;20356;-68
2022/10/08 10:58:51;;;;;;;;;;;14.60;92.90;;;;;;5092118;28;20369;-67
2022/10/08 11:01:24;;;;;;;;;;;14.70;92.50;;;;;;5084596;28;20007;-68
2022/10/08 11:03:58;;;;;;;;;;;14.70;92.60;;;;;;5086279;28;19924;-67
2022/10/08 11:06:39;;;;;;;;;;;14.80;92.70;;;;;;5089905;28;19935;-67
2022/10/08 11:09:10;;;;;;;;;;;14.70;93.00;;;;;;5089169;28;19924;-68
2022/10/08 11:11:41;;;;;;;;;;;14.70;93.60;;;;;;5092659;28;19924;-67
2022/10/08 11:14:23;;;;;;;;;;;14.70;93.60;;;;;;5082204;22;20022;-67
2022/10/08 11:16:55;;;;;;;;;;;14.70;94.10;;;;;;5077793;28;19930;-68
2022/10/08 11:19:32;;;;;;;;;;;14.60;93.10;;;;;;5085003;28;19938;-68
2022/10/08 11:22:04;;;;;;;;;;;14.60;92.10;;;;;;5086808;28;20361;-67
2022/10/08 11:24:38;;;;;;;;;;;14.90;92.10;;;;;;5093575;28;19931;-68
2022/10/08 11:27:13;;;;;;;;;;;15.30;90.90;;;;;;5090113;28;20009;-69
2022/10/08 11:29:44;;;;;;;;;;;15.20;90.60;;;;;;5090850;28;19924;-67
2022/10/08 11:32:11;;;;;;;;;;;15.20;90.90;;;;;;5093959;28;20356;-67
2022/10/08 11:34:42;;;;;;;;;;;15.20;90.50;;;;;;5088084;28;19932;-68
2022/10/08 11:37:12;;;;;;;;;;;15.30;90.40;;;;;;5090849;28;20332;-67
2022/10/08 11:39:48;;;;;;;;;;;15.50;90.80;;;;;;5091401;28;19931;-68
2022/10/08 11:42:18;;;;;;;;;;;15.90;90.70;;;;;;5091951;28;19959;-67
2022/10/08 11:44:45;;;;;;;;;;;15.90;88.90;;;;;;5089134;28;19932;-68
2022/10/08 11:47:32;;;;;;;;;;;15.80;87.50;;;;;;5092392;28;19931;-69
2022/10/08 11:50:00;;;;;;;;;;;15.70;87.80;;;;;;5091278;28;19924;-68
2022/10/08 11:52:28;;;;;;;;;;;15.90;88.00;;;;;;5086226;28;19931;-68
2022/10/08 11:54:56;;;;;;;;;;;16.10;87.20;;;;;;5087032;28;19924;-68
2022/10/08 11:57:31;;;;;;;;;;;16.30;84.80;;;;;;5086327;28;19964;-67
2022/10/08 11:59:59;;;;;;;;;;;16.40;85.00;;;;;;5090558;28;20290;-68
2022/10/08 12:02:27;;;;;;;;;;;16.60;84.40;;;;;;5087286;28;20329;-68
2022/10/08 12:04:55;;;;;;;;;;;17.10;82.70;;;;;;5088411;28;19975;-67
2022/10/08 12:07:32;;;;;;;;;;;17.10;81.00;;;;;;5089795;28;19927;-68
2022/10/08 12:10:22;;;;;;;;;;;17.10;77.90;;;;;;5087700;28;19924;-66
2022/10/08 12:13:03;;;;;;;;;;;17.20;76.90;;;;;;5078617;28;19960;-69
2022/10/08 12:16:06;;;;;;;;;;;17.30;76.40;;;;;;5086075;28;19933;-68
2022/10/08 12:18:51;;;;;;;;;;;17.20;74.30;;;;;;5004700;28;20011;-69
2022/10/08 12:21:51;;;;;;;;;;;16.80;74.80;;;;;;5007046;28;20292;-68
2022/10/08 12:24:45;;;;;;;;;;;16.60;76.60;;;;;;5082332;28;19924;-68
2022/10/08 12:27:22;;;;;;;;;;;16.50;77.30;;;;;;5094318;28;23418;-67
2022/10/08 12:29:55;;;;;;;;;;;16.60;78.00;;;;;;5086979;28;19981;-67
2022/10/08 12:32:23;;;;;;;;;;;16.40;77.50;;;;;;5078906;28;19931;-68
2022/10/08 12:34:50;;;;;;;;;;;16.20;78.70;;;;;;5085725;28;20341;-67
2022/10/08 12:37:23;;;;;;;;;;;16.00;79.40;;;;;;5084071;28;19928;-67
2022/10/08 12:39:51;;;;;;;;;;;16.10;78.50;;;;;;5081533;28;19923;-67
2022/10/08 12:42:20;;;;;;;;;;;16.40;76.60;;;;;;5088449;28;19936;-67
2022/10/08 12:45:02;;;;;;;;;;;16.70;75.80;;;;;;5082888;28;19982;-67
2022/10/08 12:47:39;;;;;;;;;;;16.80;75.50;;;;;;5081591;28;20360;-66
2022/10/08 12:50:13;;;;;;;;;;;16.50;76.80;;;;;;5083645;28;19924;-65
2022/10/08 12:52:40;;;;;;;;;;;16.10;78.70;;;;;;5084173;28;20011;-66
2022/10/08 12:55:13;;;;;;;;;;;16.10;79.10;;;;;;5075531;28;20027;-69
2022/10/08 12:57:40;;;;;;;;;;;16.00;78.60;;;;;;5086110;28;19977;-67
2022/10/08 13:00:10;;;;;;;;;;;15.80;80.50;;;;;;5080366;28;19930;-66
2022/10/08 13:02:38;;;;;;;;;;;15.70;79.20;;;;;;5081265;28;20019;-68
2022/10/08 13:05:05;;;;;;;;;;;15.70;79.30;;;;;;5090399;28;19923;-67
2022/10/08 13:07:33;;;;;;;;;;;15.90;79.60;;;;;;5091585;28;19942;-67
2022/10/08 13:10:01;;;;;;;;;;;16.10;78.90;;;;;;5091494;28;19932;-67
2022/10/08 13:12:29;;;;;;;;;;;16.40;77.60;;;;;;5087117;28;20205;-67
2022/10/08 13:15:00;;;;;;;;;;;16.70;76.90;;;;;;5090845;28;20402;-67
2022/10/08 13:17:29;;;;;;;;;;;16.70;76.20;;;;;;5094235;28;20030;-68
2022/10/08 13:20:06;;;;;;;;;;;16.80;74.90;;;;;;5085203;28;20023;-68
2022/10/08 13:22:33;;;;;;;;;;;16.70;76.10;;;;;;5082535;28;19928;-67
2022/10/08 13:25:00;;;;;;;;;;;16.70;76.40;;;;;;5078231;28;19966;-67
2022/10/08 13:27:28;;;;;;;;;;;16.40;73.70;;;;;;5083952;28;19928;-68
2022/10/08 13:29:55;;;;;;;;;;;16.20;75.90;;;;;;5085710;28;19939;-66
2022/10/08 13:32:24;;;;;;;;;;;16.00;77.00;;;;;;5080132;28;19924;-67
2022/10/08 13:34:58;;;;;;;;;;;15.90;77.50;;;;;;5087879;28;19928;-68
2022/10/08 13:37:28;;;;;;;;;;;15.80;78.70;;;;;;5090658;28;19931;-68
2022/10/08 13:39:56;;;;;;;;;;;15.60;80.00;;;;;;5089235;28;19924;-68
2022/10/08 13:42:29;;;;;;;;;;;15.50;81.00;;;;;;5082105;28;19994;-67
2022/10/08 13:45:00;;;;;;;;;;;15.40;81.50;;;;;;5081022;28;20635;-67
2022/10/08 13:47:27;;;;;;;;;;;15.30;81.70;;;;;;5075502;28;19932;-68
2022/10/08 13:50:00;;;;;;;;;;;15.30;82.40;;;;;;5075371;28;20417;-68
2022/10/08 13:52:30;;;;;;;;;;;15.40;82.40;;;;;;5073690;28;20016;-68
2022/10/08 13:54:59;;;;;;;;;;;15.70;82.10;;;;;;5080562;28;19932;-69
2022/10/08 13:57:28;;;;;;;;;;;16.00;82.40;;;;;;5080200;28;19967;-69
2022/10/08 13:59:54;;;;;;;;;;;16.20;81.20;;;;;;5089903;28;19923;-67
2022/10/08 14:02:29;;;;;;;;;;;16.40;80.50;;;;;;5076955;28;19931;-68
2022/10/08 14:05:04;;;;;;;;;;;16.50;80.00;;;;;;5085312;28;19924;-69
2022/10/08 14:07:33;;;;;;;;;;;16.50;79.40;;;;;;5081488;28;19963;-68
2022/10/08 14:10:01;;;;;;;;;;;16.50;79.20;;;;;;5077180;28;19923;-68
2022/10/08 14:12:31;;;;;;;;;;;16.40;77.80;;;;;;5091066;28;19924;-68
2022/10/08 14:14:58;;;;;;;;;;;16.40;75.90;;;;;;5094092;28;19924;-69
2022/10/08 14:17:27;;;;;;;;;;;16.00;78.80;;;;;;5081688;28;19950;-69
2022/10/08 14:19:57;;;;;;;;;;;15.90;80.90;;;;;;5091716;28;19924;-69
2022/10/08 14:22:27;;;;;;;;;;;15.70;80.90;;;;;;5085337;28;19939;-69
2022/10/08 14:24:59;;;;;;;;;;;15.70;81.50;;;;;;5093802;28;19935;-69
2022/10/08 14:27:32;;;;;;;;;;;15.80;76.90;;;;;;5081072;28;19924;-69
2022/10/08 14:30:13;;;;;;;;;;;15.90;78.80;;;;;;5079260;28;19932;-69